Mary Alice — WCX9570 — position and weather

sailwx.info

Track history (hours):
 
Tides and Currents Weather Stations Pressure Air Temp Water Temp Dewpoint Dewpoint Depression Visibility Wind Speed Wind Dir Waves Ship Positions

Mary Alice

Owner: Donjon Marine Co., Inc., HILLSIDE, NJ. More information available from US FCC via Universal Licensing System and Coast Guard Vessel Documentation Center.

Last reported at 2014-Oct-25 18:29 UTC. Time now 2014-Oct-26 01:16 UTC.
Position N 40°30' W 074°16'.

Length 21 m; draft 5 m.

Type: Towing. MMSI: 366744020.

Date/timePositionNaut miles runAvg speedWind from/ knotsBaromVisibWave heightAir tempDewpointWater temp
2014-Oct-25 18:29N 40°30' W 074°16'0 0.2
2014-Oct-25 17:06N 40°30' W 074°16'0 0.0
2014-Oct-25 15:33N 40°30' W 074°16'0 0.2
2014-Oct-25 14:24N 40°30' W 074°16'0 0.1
2014-Oct-25 13:33N 40°30' W 074°15'0 0.3
2014-Oct-25 12:33N 40°30' W 074°16'0 0.0
2014-Oct-25 11:31N 40°30' W 074°16'0 0.1
2014-Oct-25 10:20N 40°30' W 074°16'0 0.0
2014-Oct-25 06:24N 40°30' W 074°16'0 0.2
2014-Oct-25 05:31N 40°30' W 074°16'0 0.0
2014-Oct-23 11:27N 40°30' W 074°15'0 0.0
2014-Oct-22 21:29N 40°30' W 074°15'0 0.0
2014-Oct-22 11:20N 40°30' W 074°15'0 0.0
2014-Oct-21 21:20N 40°30' W 074°15'7 5.7
2014-Oct-21 20:06N 40°36' W 074°12'3 6.3
2014-Oct-21 19:33N 40°39' W 074°09'4 3.9
2014-Oct-21 18:33N 40°41' W 074°04'3 3.2
2014-Oct-21 17:33N 40°41' W 074°09'1 0.5
2014-Oct-21 15:04N 40°42' W 074°09'2 4.4
2014-Oct-21 14:33N 40°40' W 074°09'3 3.3
2014-Oct-21 13:33N 40°40' W 074°04'0 0.0
2014-Oct-21 12:34N 40°40' W 074°04'0 0.0
2014-Oct-21 11:33N 40°40' W 074°04'0 0.1
2014-Oct-21 10:33N 40°40' W 074°04'0 0.2
2014-Oct-21 09:33N 40°40' W 074°04'4 3.6
2014-Oct-21 08:33N 40°38' W 074°09'2 2.0
2014-Oct-21 07:33N 40°40' W 074°08'3 3.2
2014-Oct-21 06:33N 40°40' W 074°04'1 0.9
2014-Oct-21 05:33N 40°39' W 074°05'4 4.2
2014-Oct-21 04:33N 40°41' W 074°10'2 2.3
2014-Oct-21 03:33N 40°39' W 074°09'4 3.7
2014-Oct-21 02:33N 40°40' W 074°04'0 0.0
2014-Oct-21 01:33N 40°40' W 074°04'0 0.0
2014-Oct-21 00:33N 40°40' W 074°04'0 0.0
2014-Oct-20 23:33N 40°40' W 074°04'0 0.0
2014-Oct-20 22:33N 40°40' W 074°04'0 0.0
2014-Oct-20 21:33N 40°40' W 074°04'0 0.0
2014-Oct-20 20:34N 40°40' W 074°04'0 0.0
2014-Oct-20 19:33N 40°40' W 074°04'0 0.0
2014-Oct-20 18:33N 40°40' W 074°04'0 0.0
2014-Oct-20 17:33N 40°40' W 074°04'0 0.0
2014-Oct-20 16:33N 40°40' W 074°04'0 0.0
2014-Oct-20 15:33N 40°40' W 074°04'0 0.0
2014-Oct-20 14:33N 40°40' W 074°04'0 0.0
2014-Oct-20 13:33N 40°40' W 074°04'0 0.0
2014-Oct-20 12:33N 40°40' W 074°04'0 0.0
2014-Oct-20 11:33N 40°40' W 074°04'0 0.0
2014-Oct-20 10:33N 40°40' W 074°04'3 2.8
2014-Oct-20 09:33N 40°39' W 074°07'3 2.9
2014-Oct-20 08:33N 40°41' W 074°08'0 0.0
2014-Oct-20 07:33N 40°41' W 074°08'0 0.0
2014-Oct-20 06:34N 40°41' W 074°08'0 0.0
2014-Oct-20 05:33N 40°41' W 074°08'0 0.0
2014-Oct-20 04:33N 40°41' W 074°08'0 0.0
2014-Oct-20 03:34N 40°41' W 074°08'0 0.0
2014-Oct-20 02:31N 40°41' W 074°08'0 0.0
2014-Oct-20 01:33N 40°41' W 074°08'0 0.0
2014-Oct-20 00:33N 40°41' W 074°08'0 0.0
2014-Oct-19 23:33N 40°41' W 074°08'0 0.0
2014-Oct-19 22:33N 40°41' W 074°08'0 0.0
2014-Oct-19 21:34N 40°41' W 074°08'0 0.1
2014-Oct-19 20:33N 40°42' W 074°08'0 0.0
2014-Oct-19 19:31N 40°42' W 074°08'0 0.0
2014-Oct-19 18:33N 40°42' W 074°08'0 0.0
2014-Oct-19 17:33N 40°42' W 074°08'0 0.0
2014-Oct-19 16:33N 40°42' W 074°08'5 4.5
2014-Oct-19 15:33N 40°39' W 074°04'1 1.4
2014-Oct-19 14:33N 40°40' W 074°04'3 3.3
2014-Oct-19 13:34N 40°40' W 074°08'2 1.7
2014-Oct-19 12:33N 40°41' W 074°08'4 3.7
2014-Oct-19 11:34N 40°39' W 074°05'10 2.3
2014-Oct-19 07:21N 40°31' W 073°58'5 5.8
2014-Oct-19 06:30N 40°35' W 074°02'6 6.4
2014-Oct-19 05:33N 40°41' W 074°02'9 8.6
2014-Oct-19 04:33N 40°49' W 073°58'4 0.5
2014-Oct-18 21:33N 40°46' W 074°01'9 9.0
2014-Oct-18 20:33N 40°37' W 074°03'10 3.1
2014-Oct-18 17:18N 40°29' W 073°54'6 6.9
2014-Oct-18 16:29N 40°31' W 074°01'4 4.5
2014-Oct-18 15:30N 40°36' W 074°02'1 0.8
2014-Oct-18 14:33N 40°36' W 074°03'8 7.5
2014-Oct-18 13:31N 40°44' W 074°01'13 1.6
2014-Oct-18 05:18N 40°56' W 073°54'4 1.3
2014-Oct-18 02:18N 40°52' W 073°56'5 6.9
2014-Oct-18 01:32N 40°47' W 073°59'7 7.2
2014-Oct-18 00:33N 40°41' W 074°02'9 6.7
2014-Oct-17 23:10N 40°32' W 074°00'5 7.2
2014-Oct-17 22:32N 40°29' W 073°55'7 6.9
2014-Oct-17 21:28N 40°23' W 073°51'5 5.2
2014-Oct-17 20:32N 40°28' W 073°53'7 6.3
2014-Oct-17 19:28N 40°31' W 074°00'6 6.1
2014-Oct-17 18:32N 40°36' W 074°03'6 6.0
2014-Oct-17 17:33N 40°42' W 074°02'8 1.1
2014-Oct-17 10:33N 40°49' W 073°58'8 8.1
2014-Oct-17 09:33N 40°42' W 074°02'7 6.6
2014-Oct-17 08:33N 40°35' W 074°02'9 2.3
2014-Oct-17 04:33N 40°29' W 073°54'5 4.9
2014-Oct-17 03:33N 40°31' W 073°59'5 5.5
2014-Oct-17 02:32N 40°36' W 074°03'6 5.9
2014-Oct-17 01:33N 40°42' W 074°02'6 5.9
2014-Oct-17 00:33N 40°47' W 073°60'2 0.4
2014-Oct-16 20:13N 40°49' W 073°58'711.0
2014-Oct-16 19:33N 40°42' W 074°02'5 4.8
2014-Oct-16 18:33N 40°41' W 074°08'1 0.2
2014-Oct-16 14:33N 40°40' W 074°08'6 6.2
2014-Oct-16 13:33N 40°43' W 074°01'1 1.1
2014-Oct-16 12:33N 40°44' W 074°01'13 6.3
2014-Oct-16 10:28N 40°31' W 074°00'9 3.7
2014-Oct-16 08:04N 40°26' W 073°51'4 5.8
2014-Oct-16 07:23N 40°29' W 073°54'5 6.0
2014-Oct-16 06:31N 40°31' W 074°01'6 5.6
2014-Oct-16 05:26N 40°37' W 074°03'5 6.0
2014-Oct-16 04:34N 40°42' W 074°02'14 2.0
2014-Oct-15 21:15N 40°56' W 073°54'2 2.5
2014-Oct-15 20:33N 40°54' W 073°55'9 8.7
2014-Oct-15 19:33N 40°46' W 074°00'  
Track history (hours):
 
Tides and Currents Weather Stations Pressure Air Temp Water Temp Dewpoint Dewpoint Depression Visibility Wind Speed Wind Dir Waves Ship Positions

Mary Alice

Owner: Donjon Marine Co., Inc., HILLSIDE, NJ. More information available from US FCC via Universal Licensing System and Coast Guard Vessel Documentation Center.

Last reported at 2014-Oct-25 18:29 UTC. Time now 2014-Oct-26 01:16 UTC.
Position N 40°30' W 074°16'.

Length 21 m; draft 5 m.

Type: Towing. MMSI: 366744020.

Date/timePositionNaut miles runAvg speedWind from/ knotsBaromVisibWave heightAir tempDewpointWater temp
2014-Oct-25 18:29N 40°30' W 074°16'0 0.2
2014-Oct-25 17:06N 40°30' W 074°16'0 0.0
2014-Oct-25 15:33N 40°30' W 074°16'0 0.2
2014-Oct-25 14:24N 40°30' W 074°16'0 0.1
2014-Oct-25 13:33N 40°30' W 074°15'0 0.3
2014-Oct-25 12:33N 40°30' W 074°16'0 0.0
2014-Oct-25 11:31N 40°30' W 074°16'0 0.1
2014-Oct-25 10:20N 40°30' W 074°16'0 0.0
2014-Oct-25 06:24N 40°30' W 074°16'0 0.2
2014-Oct-25 05:31N 40°30' W 074°16'0 0.0
2014-Oct-23 11:27N 40°30' W 074°15'0 0.0
2014-Oct-22 21:29N 40°30' W 074°15'0 0.0
2014-Oct-22 11:20N 40°30' W 074°15'0 0.0
2014-Oct-21 21:20N 40°30' W 074°15'7 5.7
2014-Oct-21 20:06N 40°36' W 074°12'3 6.3
2014-Oct-21 19:33N 40°39' W 074°09'4 3.9
2014-Oct-21 18:33N 40°41' W 074°04'3 3.2
2014-Oct-21 17:33N 40°41' W 074°09'1 0.5
2014-Oct-21 15:04N 40°42' W 074°09'2 4.4
2014-Oct-21 14:33N 40°40' W 074°09'3 3.3
2014-Oct-21 13:33N 40°40' W 074°04'0 0.0
2014-Oct-21 12:34N 40°40' W 074°04'0 0.0
2014-Oct-21 11:33N 40°40' W 074°04'0 0.1
2014-Oct-21 10:33N 40°40' W 074°04'0 0.2
2014-Oct-21 09:33N 40°40' W 074°04'4 3.6
2014-Oct-21 08:33N 40°38' W 074°09'2 2.0
2014-Oct-21 07:33N 40°40' W 074°08'3 3.2
2014-Oct-21 06:33N 40°40' W 074°04'1 0.9
2014-Oct-21 05:33N 40°39' W 074°05'4 4.2
2014-Oct-21 04:33N 40°41' W 074°10'2 2.3
2014-Oct-21 03:33N 40°39' W 074°09'4 3.7
2014-Oct-21 02:33N 40°40' W 074°04'0 0.0
2014-Oct-21 01:33N 40°40' W 074°04'0 0.0
2014-Oct-21 00:33N 40°40' W 074°04'0 0.0
2014-Oct-20 23:33N 40°40' W 074°04'0 0.0
2014-Oct-20 22:33N 40°40' W 074°04'0 0.0
2014-Oct-20 21:33N 40°40' W 074°04'0 0.0
2014-Oct-20 20:34N 40°40' W 074°04'0 0.0
2014-Oct-20 19:33N 40°40' W 074°04'0 0.0
2014-Oct-20 18:33N 40°40' W 074°04'0 0.0
2014-Oct-20 17:33N 40°40' W 074°04'0 0.0
2014-Oct-20 16:33N 40°40' W 074°04'0 0.0
2014-Oct-20 15:33N 40°40' W 074°04'0 0.0
2014-Oct-20 14:33N 40°40' W 074°04'0 0.0
2014-Oct-20 13:33N 40°40' W 074°04'0 0.0
2014-Oct-20 12:33N 40°40' W 074°04'0 0.0
2014-Oct-20 11:33N 40°40' W 074°04'0 0.0
2014-Oct-20 10:33N 40°40' W 074°04'3 2.8
2014-Oct-20 09:33N 40°39' W 074°07'3 2.9
2014-Oct-20 08:33N 40°41' W 074°08'0 0.0
2014-Oct-20 07:33N 40°41' W 074°08'0 0.0
2014-Oct-20 06:34N 40°41' W 074°08'0 0.0
2014-Oct-20 05:33N 40°41' W 074°08'0 0.0
2014-Oct-20 04:33N 40°41' W 074°08'0 0.0
2014-Oct-20 03:34N 40°41' W 074°08'0 0.0
2014-Oct-20 02:31N 40°41' W 074°08'0 0.0
2014-Oct-20 01:33N 40°41' W 074°08'0 0.0
2014-Oct-20 00:33N 40°41' W 074°08'0 0.0
2014-Oct-19 23:33N 40°41' W 074°08'0 0.0
2014-Oct-19 22:33N 40°41' W 074°08'0 0.0
2014-Oct-19 21:34N 40°41' W 074°08'0 0.1
2014-Oct-19 20:33N 40°42' W 074°08'0 0.0
2014-Oct-19 19:31N 40°42' W 074°08'0 0.0
2014-Oct-19 18:33N 40°42' W 074°08'0 0.0
2014-Oct-19 17:33N 40°42' W 074°08'0 0.0
2014-Oct-19 16:33N 40°42' W 074°08'5 4.5
2014-Oct-19 15:33N 40°39' W 074°04'1 1.4
2014-Oct-19 14:33N 40°40' W 074°04'3 3.3
2014-Oct-19 13:34N 40°40' W 074°08'2 1.7
2014-Oct-19 12:33N 40°41' W 074°08'4 3.7
2014-Oct-19 11:34N 40°39' W 074°05'10 2.3
2014-Oct-19 07:21N 40°31' W 073°58'5 5.8
2014-Oct-19 06:30N 40°35' W 074°02'6 6.4
2014-Oct-19 05:33N 40°41' W 074°02'9 8.6
2014-Oct-19 04:33N 40°49' W 073°58'4 0.5
2014-Oct-18 21:33N 40°46' W 074°01'9 9.0
2014-Oct-18 20:33N 40°37' W 074°03'10 3.1
2014-Oct-18 17:18N 40°29' W 073°54'6 6.9
2014-Oct-18 16:29N 40°31' W 074°01'4 4.5
2014-Oct-18 15:30N 40°36' W 074°02'1 0.8
2014-Oct-18 14:33N 40°36' W 074°03'8 7.5
2014-Oct-18 13:31N 40°44' W 074°01'13 1.6
2014-Oct-18 05:18N 40°56' W 073°54'4 1.3
2014-Oct-18 02:18N 40°52' W 073°56'5 6.9
2014-Oct-18 01:32N 40°47' W 073°59'7 7.2
2014-Oct-18 00:33N 40°41' W 074°02'9 6.7
2014-Oct-17 23:10N 40°32' W 074°00'5 7.2
2014-Oct-17 22:32N 40°29' W 073°55'7 6.9
2014-Oct-17 21:28N 40°23' W 073°51'5 5.2
2014-Oct-17 20:32N 40°28' W 073°53'7 6.3
2014-Oct-17 19:28N 40°31' W 074°00'6 6.1
2014-Oct-17 18:32N 40°36' W 074°03'6 6.0
2014-Oct-17 17:33N 40°42' W 074°02'8 1.1
2014-Oct-17 10:33N 40°49' W 073°58'8 8.1
2014-Oct-17 09:33N 40°42' W 074°02'7 6.6
2014-Oct-17 08:33N 40°35' W 074°02'9 2.3
2014-Oct-17 04:33N 40°29' W 073°54'5 4.9
2014-Oct-17 03:33N 40°31' W 073°59'5 5.5
2014-Oct-17 02:32N 40°36' W 074°03'6 5.9
2014-Oct-17 01:33N 40°42' W 074°02'6 5.9
2014-Oct-17 00:33N 40°47' W 073°60'2 0.4
2014-Oct-16 20:13N 40°49' W 073°58'711.0
2014-Oct-16 19:33N 40°42' W 074°02'5 4.8
2014-Oct-16 18:33N 40°41' W 074°08'1 0.2
2014-Oct-16 14:33N 40°40' W 074°08'6 6.2
2014-Oct-16 13:33N 40°43' W 074°01'1 1.1
2014-Oct-16 12:33N 40°44' W 074°01'13 6.3
2014-Oct-16 10:28N 40°31' W 074°00'9 3.7
2014-Oct-16 08:04N 40°26' W 073°51'4 5.8
2014-Oct-16 07:23N 40°29' W 073°54'5 6.0
2014-Oct-16 06:31N 40°31' W 074°01'6 5.6
2014-Oct-16 05:26N 40°37' W 074°03'5 6.0
2014-Oct-16 04:34N 40°42' W 074°02'14 2.0
2014-Oct-15 21:15N 40°56' W 073°54'2 2.5
2014-Oct-15 20:33N 40°54' W 073°55'9 8.7
2014-Oct-15 19:33N 40°46' W 074°00'  

Dump ship's entire track history